Time;durP1;ratioP1;P1;durP2;ratioP2;P2;SDS_P1;SDS_P2;PMS_P1;PMS_P2;Temp;Humidity;BMP_temperature;BMP_pressure;BME280_temperature;BME280_humidity;BME280_pressure;Samples;Min_cycle;Max_cycle;Signal;HPM_P1;HPM_P2
2022/04/11 00:00:28;;;;;;;1.48;0.50;;;18.80;53.10;;;;;;4953419;28;20309;-64
2022/04/11 00:02:58;;;;;;;1.00;0.60;;;18.90;53.10;;;;;;4954312;28;20302;-62
2022/04/11 00:05:29;;;;;;;0.95;0.55;;;18.90;53.00;;;;;;4951380;28;20281;-60
2022/04/11 00:07:59;;;;;;;1.70;0.75;;;18.90;53.00;;;;;;4953721;28;20281;-62
2022/04/11 00:10:30;;;;;;;0.93;0.70;;;18.90;52.90;;;;;;4952900;28;20302;-58
2022/04/11 00:13:05;;;;;;;1.13;0.70;;;19.00;52.80;;;;;;4953310;28;20282;-57
2022/04/11 00:15:39;;;;;;;0.98;0.70;;;19.00;52.80;;;;;;4953219;28;20289;-56
2022/04/11 00:18:10;;;;;;;0.80;0.60;;;19.00;53.10;;;;;;4953184;28;20305;-65
2022/04/11 00:20:40;;;;;;;2.13;0.70;;;19.10;52.90;;;;;;4946877;28;20310;-59
2022/04/11 00:23:11;;;;;;;1.38;0.60;;;19.10;52.80;;;;;;4935800;29;20290;-62
2022/04/11 00:25:41;;;;;;;0.80;0.60;;;19.20;52.90;;;;;;4935640;29;20295;-65
2022/04/11 00:28:12;;;;;;;1.45;0.70;;;19.20;52.90;;;;;;4934208;29;20210;-60
2022/04/11 00:30:44;;;;;;;0.63;0.60;;;19.20;52.80;;;;;;4933803;29;20229;-60
2022/04/11 00:33:14;;;;;;;1.13;0.60;;;19.30;52.80;;;;;;4934020;29;20210;-64
2022/04/11 00:35:46;;;;;;;1.13;0.60;;;19.30;52.80;;;;;;4933976;29;20840;-64
2022/04/11 00:38:16;;;;;;;0.73;0.43;;;19.40;52.70;;;;;;4914773;29;20228;-65
2022/04/11 00:40:47;;;;;;;2.30;0.65;;;19.40;53.20;;;;;;4916158;29;20315;-64
2022/04/11 00:43:32;;;;;;;1.30;0.60;;;19.40;52.50;;;;;;4916331;29;20204;-64
2022/04/11 00:46:05;;;;;;;1.02;0.65;;;19.40;52.50;;;;;;4926600;29;20195;-64
2022/04/11 00:48:36;;;;;;;1.08;0.60;;;19.50;52.50;;;;;;4937229;29;20646;-58
2022/04/11 00:51:08;;;;;;;3.35;0.60;;;19.50;52.00;;;;;;4952662;28;20223;-59
2022/04/11 00:53:42;;;;;;;1.15;0.57;;;19.60;51.80;;;;;;4951229;28;20274;-61
2022/04/11 00:56:15;;;;;;;0.60;0.52;;;19.60;51.90;;;;;;4951753;28;20279;-64
2022/04/11 00:58:45;;;;;;;1.25;0.60;;;19.60;51.80;;;;;;4953072;28;20199;-64
2022/04/11 01:01:18;;;;;;;0.82;0.60;;;19.70;51.80;;;;;;4950019;29;20706;-60
2022/04/11 01:03:48;;;;;;;1.25;0.52;;;19.70;51.80;;;;;;4952924;28;20252;-61
2022/04/11 01:06:19;;;;;;;0.52;0.32;;;19.80;51.90;;;;;;4951467;28;20222;-65
2022/04/11 01:08:50;;;;;;;0.98;0.65;;;19.80;51.90;;;;;;4952620;28;20278;-64
2022/04/11 01:11:21;;;;;;;1.00;0.50;;;19.80;51.80;;;;;;4952258;28;20838;-64
2022/04/11 01:13:52;;;;;;;1.52;0.40;;;19.80;51.80;;;;;;4952203;28;20222;-64
2022/04/11 01:16:31;;;;;;;1.20;0.55;;;19.90;51.80;;;;;;4951614;28;20222;-63
2022/04/11 01:19:02;;;;;;;1.38;0.50;;;19.90;51.70;;;;;;4951773;28;20294;-59
2022/04/11 01:21:34;;;;;;;2.35;0.77;;;20.00;51.70;;;;;;4952545;28;20625;-64
2022/04/11 01:24:04;;;;;;;0.82;0.47;;;20.00;51.70;;;;;;4952375;28;20222;-61
2022/04/11 01:26:38;;;;;;;2.70;0.60;;;20.10;51.60;;;;;;4952446;28;20282;-60
2022/04/11 01:29:10;;;;;;;1.45;0.43;;;20.10;51.50;;;;;;4951856;28;20226;-63
2022/04/11 01:31:41;;;;;;;1.30;0.40;;;20.10;51.50;;;;;;4951128;28;20323;-63
2022/04/11 01:34:12;;;;;;;0.47;0.40;;;20.20;51.50;;;;;;4951451;28;20191;-60
2022/04/11 01:36:44;;;;;;;0.85;0.50;;;20.20;51.40;;;;;;4951762;28;20202;-59
2022/04/11 01:39:14;;;;;;;0.68;0.50;;;20.20;51.40;;;;;;4951219;28;20310;-59
2022/04/11 01:41:45;;;;;;;1.95;0.60;;;20.30;51.50;;;;;;4951290;28;20290;-63
2022/04/11 01:44:15;;;;;;;1.15;0.52;;;20.30;51.40;;;;;;4951188;28;20245;-61
2022/04/11 01:46:46;;;;;;;1.65;0.50;;;20.30;51.40;;;;;;4951120;28;20290;-58
2022/04/11 01:49:17;;;;;;;2.05;0.40;;;20.40;51.40;;;;;;4951367;28;20218;-59
2022/04/11 01:51:49;;;;;;;0.80;0.50;;;20.40;51.40;;;;;;4951272;28;20318;-60
2022/04/11 01:54:19;;;;;;;1.30;0.55;;;20.50;51.50;;;;;;4952014;28;20656;-57
2022/04/11 01:56:50;;;;;;;0.57;0.47;;;20.50;51.40;;;;;;4951400;28;20278;-56
2022/04/11 01:59:20;;;;;;;0.95;0.57;;;20.50;51.40;;;;;;4951325;28;20249;-56
2022/04/11 02:01:51;;;;;;;0.40;0.35;;;20.50;51.40;;;;;;4951317;28;20289;-59
2022/04/11 02:04:21;;;;;;;1.15;0.40;;;20.60;51.40;;;;;;4951997;28;20263;-63
2022/04/11 02:06:54;;;;;;;1.33;0.50;;;20.70;51.40;;;;;;4952258;28;20841;-63
2022/04/11 02:09:24;;;;;;;0.75;0.40;;;20.70;51.40;;;;;;4950632;28;20301;-62
2022/04/11 02:11:54;;;;;;;0.60;0.50;;;20.70;51.40;;;;;;4951182;28;20317;-63
2022/04/11 02:14:25;;;;;;;0.52;0.40;;;20.80;51.40;;;;;;4947909;28;20279;-64
2022/04/11 02:16:55;;;;;;;1.33;0.50;;;20.80;51.20;;;;;;4950837;29;20230;-62
2022/04/11 02:19:26;;;;;;;1.40;0.50;;;20.90;51.30;;;;;;4936811;28;20311;-65
2022/04/11 02:21:58;;;;;;;1.77;0.60;;;20.90;51.20;;;;;;4933518;29;20286;-63
2022/04/11 02:24:28;;;;;;;0.85;0.43;;;20.90;51.10;;;;;;4938621;29;20294;-58
2022/04/11 02:26:59;;;;;;;0.60;0.40;;;21.00;51.20;;;;;;4951479;28;20329;-60
2022/04/11 02:29:29;;;;;;;0.45;0.35;;;21.00;51.00;;;;;;4950979;28;20334;-61
2022/04/11 02:32:00;;;;;;;0.65;0.60;;;21.00;51.00;;;;;;4950531;28;20326;-61
2022/04/11 02:34:31;;;;;;;2.25;0.50;;;21.00;50.80;;;;;;4948772;28;20238;-59
2022/04/11 02:37:03;;;;;;;1.30;0.40;;;21.10;50.80;;;;;;4949737;28;20191;-58
2022/04/11 02:39:33;;;;;;;0.75;0.47;;;21.10;50.70;;;;;;4950870;28;20301;-61
2022/04/11 02:42:04;;;;;;;2.25;0.60;;;21.10;50.70;;;;;;4950703;28;20222;-61
2022/04/11 02:44:34;;;;;;;1.08;0.50;;;21.20;50.70;;;;;;4951455;28;20286;-64
2022/04/11 02:47:05;;;;;;;0.50;0.40;;;21.20;50.60;;;;;;4949437;28;20205;-63
2022/04/11 02:49:35;;;;;;;2.80;0.50;;;21.30;50.60;;;;;;4950291;28;20217;-58
2022/04/11 02:52:08;;;;;;;0.45;0.30;;;21.30;50.50;;;;;;4950432;28;20411;-59
2022/04/11 02:54:39;;;;;;;0.90;0.45;;;21.40;50.50;;;;;;4948790;28;20607;-60
2022/04/11 02:57:10;;;;;;;0.70;0.40;;;21.40;50.90;;;;;;4951279;28;20282;-62
2022/04/11 02:59:41;;;;;;;0.85;0.50;;;21.40;50.10;;;;;;4949593;28;20463;-58
2022/04/11 03:02:11;;;;;;;0.45;0.32;;;21.50;50.10;;;;;;4949502;28;20290;-66
2022/04/11 03:04:42;;;;;;;0.30;0.30;;;21.60;50.00;;;;;;4949313;28;20191;-64
2022/04/11 03:07:14;;;;;;;1.23;0.60;;;21.60;49.90;;;;;;4949572;28;20283;-66
2022/04/11 03:09:44;;;;;;;0.35;0.32;;;21.60;49.80;;;;;;4949995;28;20210;-59
2022/04/11 03:12:16;;;;;;;1.08;0.50;;;21.60;49.70;;;;;;4950366;28;20321;-64
2022/04/11 03:14:49;;;;;;;1.30;0.50;;;21.70;49.70;;;;;;4949936;28;20202;-64
2022/04/11 03:17:20;;;;;;;1.67;0.65;;;21.70;49.70;;;;;;4950229;28;20213;-59
2022/04/11 03:19:50;;;;;;;1.48;0.38;;;21.80;49.60;;;;;;4950554;28;20713;-63
2022/04/11 03:22:23;;;;;;;0.55;0.40;;;21.80;49.50;;;;;;4950206;28;20631;-61
2022/04/11 03:24:53;;;;;;;1.23;0.50;;;21.90;49.50;;;;;;4950718;28;20203;-64
2022/04/11 03:27:23;;;;;;;1.10;0.35;;;21.90;49.50;;;;;;4949317;29;20298;-58
2022/04/11 03:29:54;;;;;;;0.55;0.40;;;21.90;49.40;;;;;;4949649;28;20306;-64
2022/04/11 03:32:25;;;;;;;1.55;0.50;;;22.00;49.40;;;;;;4949961;28;20583;-62
2022/04/11 03:34:55;;;;;;;1.42;0.40;;;22.00;49.30;;;;;;4950362;28;20195;-64
2022/04/11 03:37:28;;;;;;;1.02;0.50;;;22.00;49.20;;;;;;4950283;28;20281;-59
2022/04/11 03:39:58;;;;;;;0.88;0.40;;;22.10;49.10;;;;;;4950961;28;20214;-62
2022/04/11 03:42:29;;;;;;;0.55;0.40;;;22.10;49.10;;;;;;4949904;28;20282;-64
2022/04/11 03:44:59;;;;;;;0.77;0.45;;;22.20;49.00;;;;;;4950606;28;20206;-65
2022/04/11 03:47:30;;;;;;;0.70;0.40;;;22.20;48.90;;;;;;4950307;28;20282;-65
2022/04/11 03:50:00;;;;;;;0.68;0.47;;;22.20;48.80;;;;;;4949273;28;20242;-63
2022/04/11 03:52:33;;;;;;;1.83;0.45;;;22.30;48.70;;;;;;4949007;28;20305;-61
2022/04/11 03:55:04;;;;;;;0.73;0.40;;;22.30;48.70;;;;;;4949709;28;20299;-64
2022/04/11 03:57:35;;;;;;;2.65;0.35;;;22.30;48.60;;;;;;4950294;28;20281;-63
2022/04/11 04:00:06;;;;;;;1.50;0.65;;;22.40;48.70;;;;;;4949587;28;20384;-63
2022/04/11 04:02:36;;;;;;;1.77;0.50;;;22.40;48.70;;;;;;4949918;28;20190;-63
2022/04/11 04:05:08;;;;;;;1.33;0.40;;;22.40;48.60;;;;;;4949636;29;20642;-64
2022/04/11 04:07:41;;;;;;;1.02;0.50;;;22.50;48.70;;;;;;4950634;28;20238;-62
2022/04/11 04:10:12;;;;;;;2.20;0.50;;;22.50;48.50;;;;;;4949487;28;20751;-58
2022/04/11 04:12:42;;;;;;;2.15;0.40;;;22.50;48.40;;;;;;4950326;28;20341;-60
2022/04/11 04:15:13;;;;;;;0.98;0.43;;;22.50;48.40;;;;;;4953642;28;20286;-61
2022/04/11 04:17:43;;;;;;;2.58;0.50;;;22.60;48.30;;;;;;4952908;28;20198;-62
2022/04/11 04:20:14;;;;;;;0.68;0.50;;;22.60;48.20;;;;;;4951863;28;20216;-59
2022/04/11 04:22:46;;;;;;;0.73;0.50;;;22.60;48.10;;;;;;4952387;28;20719;-64
2022/04/11 04:25:17;;;;;;;0.93;0.32;;;22.70;48.00;;;;;;4966951;23;20244;-47
2022/04/11 04:27:47;;;;;;;1.30;0.70;;;22.70;47.90;;;;;;4953039;28;20278;-47
2022/04/11 04:30:18;;;;;;;0.30;0.30;;;22.70;47.70;;;;;;4942123;28;20314;-47
2022/04/11 04:32:48;;;;;;;1.33;0.40;;;22.80;47.70;;;;;;4935313;29;20267;-48
2022/04/11 04:35:18;;;;;;;1.75;0.65;;;22.80;47.60;;;;;;4928026;29;20290;-46
2022/04/11 04:37:51;;;;;;;1.67;0.43;;;22.90;47.60;;;;;;4928310;29;20374;-47
2022/04/11 04:40:21;;;;;;;1.77;0.50;;;22.90;47.60;;;;;;4933718;29;20311;-47
2022/04/11 04:42:52;;;;;;;1.52;0.55;;;22.90;47.60;;;;;;4933408;29;20291;-47
2022/04/11 04:45:23;;;;;;;1.65;0.50;;;22.90;47.40;;;;;;4933247;29;20286;-47
2022/04/11 04:47:53;;;;;;;1.08;0.50;;;22.90;47.50;;;;;;4935188;29;20199;-47
2022/04/11 04:50:24;;;;;;;0.50;0.38;;;23.00;47.50;;;;;;4935391;29;20310;-47
2022/04/11 04:52:56;;;;;;;1.85;0.63;;;22.90;48.10;;;;;;4934906;29;20318;-48
2022/04/11 04:55:27;;;;;;;1.25;0.40;;;23.00;47.40;;;;;;4935153;29;20282;-49
2022/04/11 04:57:57;;;;;;;1.05;0.40;;;23.00;47.40;;;;;;4935001;29;20286;-48
2022/04/11 05:00:28;;;;;;;0.30;0.30;;;23.00;47.50;;;;;;4934729;29;20302;-50
2022/04/11 05:02:58;;;;;;;0.57;0.40;;;23.00;47.30;;;;;;4935040;29;20286;-48
2022/04/11 05:05:28;;;;;;;1.30;0.50;;;23.00;47.30;;;;;;4933084;29;20283;-47
2022/04/11 05:08:01;;;;;;;1.83;0.70;;;23.00;47.40;;;;;;4931607;29;20223;-49
2022/04/11 05:10:31;;;;;;;0.73;0.50;;;23.00;47.10;;;;;;4932783;29;20270;-50
2022/04/11 05:13:02;;;;;;;1.73;0.40;;;23.00;47.10;;;;;;4934474;29;20314;-53
2022/04/11 05:15:32;;;;;;;0.43;0.30;;;23.00;47.10;;;;;;4933107;29;20206;-60
2022/04/11 05:18:03;;;;;;;0.98;0.50;;;23.00;47.10;;;;;;4932923;29;20605;-60
2022/04/11 05:20:33;;;;;;;2.08;0.60;;;23.00;47.10;;;;;;4933255;29;20310;-60
2022/04/11 05:23:05;;;;;;;0.38;0.38;;;23.00;47.10;;;;;;4932861;29;21037;-61
2022/04/11 05:25:36;;;;;;;0.88;0.40;;;23.00;47.10;;;;;;4953949;23;20822;-58
2022/04/11 05:28:07;;;;;;;1.55;0.40;;;23.00;47.10;;;;;;4952454;28;20227;-58
2022/04/11 05:30:37;;;;;;;0.93;0.40;;;23.00;47.10;;;;;;4952513;28;20222;-58
2022/04/11 05:33:08;;;;;;;1.02;0.40;;;23.00;47.80;;;;;;4951442;28;20229;-58
2022/04/11 05:35:38;;;;;;;1.55;0.40;;;23.00;47.30;;;;;;4951856;28;20282;-57
2022/04/11 05:38:10;;;;;;;0.82;0.32;;;23.00;47.20;;;;;;4951432;28;20195;-59
2022/04/11 05:40:41;;;;;;;1.55;0.52;;;23.00;47.30;;;;;;4952146;29;20305;-57
2022/04/11 05:43:13;;;;;;;1.25;0.43;;;23.00;47.20;;;;;;4951749;28;20313;-58
2022/04/11 05:45:43;;;;;;;1.55;0.40;;;23.00;47.30;;;;;;4952505;28;20199;-59
2022/04/11 05:48:14;;;;;;;1.13;0.47;;;23.00;47.30;;;;;;4951592;28;20286;-58
2022/04/11 05:50:44;;;;;;;1.55;0.55;;;23.00;47.40;;;;;;4950196;28;20214;-59
2022/04/11 05:53:17;;;;;;;1.02;0.60;;;23.00;47.40;;;;;;4950772;28;20250;-59
2022/04/11 05:55:47;;;;;;;0.80;0.40;;;22.90;47.50;;;;;;4950470;28;20222;-59
2022/04/11 05:58:18;;;;;;;1.23;0.55;;;22.90;47.50;;;;;;4951771;28;20290;-59
2022/04/11 06:00:48;;;;;;;1.45;0.40;;;22.90;47.50;;;;;;4951082;28;20874;-58
2022/04/11 06:03:19;;;;;;;0.60;0.30;;;22.90;47.60;;;;;;4950146;29;20293;-58
2022/04/11 06:05:49;;;;;;;1.08;0.40;;;22.90;47.60;;;;;;4951302;28;20282;-58
2022/04/11 06:08:21;;;;;;;0.50;0.40;;;22.90;47.80;;;;;;4951670;28;20203;-61
2022/04/11 06:10:52;;;;;;;0.50;0.30;;;22.90;47.90;;;;;;4951311;28;20774;-58
2022/04/11 06:13:22;;;;;;;0.82;0.50;;;22.90;48.00;;;;;;4950333;28;20723;-58
2022/04/11 06:15:54;;;;;;;0.68;0.50;;;22.90;48.70;;;;;;4949892;29;20755;-58
2022/04/11 06:18:25;;;;;;;0.60;0.40;;;22.80;47.90;;;;;;4950186;28;20222;-58
2022/04/11 06:20:55;;;;;;;1.70;0.57;;;22.90;47.90;;;;;;4951085;28;20214;-58
2022/04/11 06:23:28;;;;;;;3.20;0.63;;;22.80;47.60;;;;;;4950750;28;20286;-58
2022/04/11 07:18:00;;;;;;;1.40;0.60;;;22.40;47.00;;;;;;5093729;23;20230;-58
2022/04/11 07:20:31;;;;;;;1.27;0.60;;;22.40;47.20;;;;;;4948521;28;20605;-60
2022/04/11 07:23:02;;;;;;;1.77;0.70;;;22.40;47.40;;;;;;4950472;28;20289;-61
2022/04/11 07:25:32;;;;;;;8.98;2.97;;;22.40;47.30;;;;;;4950917;28;20631;-61
2022/04/11 07:28:03;;;;;;;13.27;3.67;;;22.40;47.00;;;;;;4950085;29;20273;-60
2022/04/11 07:30:33;;;;;;;10.63;3.85;;;22.30;46.50;;;;;;4949161;28;20218;-62
2022/04/11 07:33:05;;;;;;;13.75;4.72;;;22.30;46.50;;;;;;4949631;28;20221;-61
2022/04/11 07:35:36;;;;;;;14.93;4.90;;;22.30;46.30;;;;;;4949932;28;20286;-61
2022/04/11 07:38:07;;;;;;;12.48;4.25;;;22.30;46.10;;;;;;4950378;28;20241;-57
2022/04/11 07:40:37;;;;;;;13.80;4.60;;;22.30;46.10;;;;;;4949927;28;20310;-61
2022/04/11 07:43:08;;;;;;;11.73;4.25;;;22.30;46.00;;;;;;4950158;28;20290;-61
2022/04/11 07:45:38;;;;;;;12.38;4.18;;;22.30;46.10;;;;;;4949404;28;20241;-61
2022/04/11 07:48:11;;;;;;;13.30;4.38;;;22.30;46.00;;;;;;4953808;28;20230;-61
2022/04/11 07:50:41;;;;;;;12.48;4.03;;;22.30;46.00;;;;;;4953675;28;20305;-60
2022/04/11 07:53:12;;;;;;;12.05;4.35;;;22.30;46.00;;;;;;4953442;28;20345;-60
2022/04/11 07:55:42;;;;;;;11.45;3.97;;;22.30;45.80;;;;;;4953548;28;20290;-61
2022/04/11 07:58:14;;;;;;;11.45;3.70;;;22.30;45.70;;;;;;4952789;28;20302;-59
2022/04/11 08:00:44;;;;;;;11.10;3.55;;;22.30;45.60;;;;;;4953195;29;20305;-61
2022/04/11 08:03:17;;;;;;;11.73;3.85;;;22.30;45.60;;;;;;4953951;28;20282;-58
2022/04/11 08:05:47;;;;;;;10.05;3.58;;;22.20;45.50;;;;;;4953131;28;20225;-57
2022/04/11 08:08:18;;;;;;;11.50;4.38;;;22.30;45.80;;;;;;4953535;28;20290;-59
2022/04/11 08:10:48;;;;;;;8.48;3.40;;;22.20;46.20;;;;;;4952724;28;20677;-60
2022/04/11 08:13:18;;;;;;;9.38;2.47;;;22.20;46.50;;;;;;4952881;28;20698;-52
2022/04/11 08:15:49;;;;;;;8.25;1.20;;;22.30;45.90;;;;;;4952260;28;20567;-52
2022/04/11 08:18:21;;;;;;;0.90;0.60;;;22.20;43.20;;;;;;4953214;28;20620;-56
2022/04/11 08:20:52;;;;;;;3.33;0.52;;;22.10;41.30;;;;;;4953562;28;20293;-60
2022/04/11 08:23:22;;;;;;;2.63;0.80;;;22.00;41.00;;;;;;4953496;28;20226;-59
2022/04/11 08:25:53;;;;;;;1.88;0.60;;;21.90;41.40;;;;;;4953002;28;20313;-59
2022/04/11 08:28:23;;;;;;;1.48;0.60;;;21.80;41.70;;;;;;4950917;28;20625;-59
2022/04/11 08:30:54;;;;;;;2.85;0.80;;;21.70;42.10;;;;;;4952600;28;20221;-61
2022/04/11 08:33:26;;;;;;;3.08;0.70;;;21.70;42.30;;;;;;4952928;28;20310;-59
2022/04/11 08:35:56;;;;;;;2.50;0.77;;;21.70;42.50;;;;;;4952671;28;20975;-63
2022/04/11 08:38:27;;;;;;;3.92;1.00;;;21.70;42.70;;;;;;4952310;28;20262;-62
2022/04/11 08:40:57;;;;;;;1.80;0.90;;;21.60;42.80;;;;;;4953050;28;20317;-61
2022/04/11 08:43:29;;;;;;;1.85;0.73;;;21.60;43.10;;;;;;4951238;28;20207;-61
2022/04/11 08:46:04;;;;;;;1.70;1.05;;;21.60;43.30;;;;;;4951596;28;20282;-62
2022/04/11 08:48:36;;;;;;;2.55;1.20;;;21.60;43.40;;;;;;4952324;28;20205;-60
2022/04/11 08:51:07;;;;;;;2.05;1.00;;;21.50;43.60;;;;;;4952460;28;20297;-62
2022/04/11 08:53:37;;;;;;;2.05;0.90;;;21.50;43.80;;;;;;4952490;28;20785;-62
2022/04/11 08:56:08;;;;;;;2.75;1.10;;;21.50;43.90;;;;;;4952185;28;20442;-61
2022/04/11 08:58:39;;;;;;;3.72;1.13;;;21.50;44.10;;;;;;4951941;28;20322;-62
2022/04/11 09:01:09;;;;;;;3.53;1.20;;;21.40;44.20;;;;;;4952920;28;20309;-61
2022/04/11 09:03:43;;;;;;;1.60;0.93;;;21.50;44.40;;;;;;4950548;28;20278;-61
2022/04/11 09:06:15;;;;;;;2.33;1.00;;;21.40;44.50;;;;;;4952268;28;20191;-61
2022/04/11 09:08:51;;;;;;;2.92;0.90;;;21.40;44.60;;;;;;4952549;28;20209;-60
2022/04/11 09:11:32;;;;;;;1.52;0.95;;;21.40;44.70;;;;;;4952309;29;20198;-61
2022/04/11 09:14:03;;;;;;;1.95;0.90;;;21.30;44.80;;;;;;4952216;28;20317;-63
2022/04/11 09:16:52;;;;;;;2.35;1.00;;;21.30;44.90;;;;;;4952147;28;20317;-61
2022/04/11 09:19:25;;;;;;;6.22;1.10;;;21.30;45.00;;;;;;4951467;28;20302;-62
2022/04/11 09:21:56;;;;;;;2.08;1.00;;;21.30;45.10;;;;;;4951925;28;20623;-62
2022/04/11 09:24:29;;;;;;;3.53;1.25;;;21.30;45.10;;;;;;4951879;28;20199;-61
2022/04/11 09:26:59;;;;;;;2.33;1.02;;;21.30;45.10;;;;;;4967614;23;20321;-56
2022/04/11 09:29:33;;;;;;;4.15;1.38;;;21.20;45.10;;;;;;4952157;28;20219;-53
2022/04/11 09:32:08;;;;;;;3.25;0.98;;;21.20;45.10;;;;;;4951388;29;20274;-50
2022/04/11 09:34:41;;;;;;;4.03;1.30;;;21.20;45.20;;;;;;4952378;28;20222;-50
2022/04/11 09:37:12;;;;;;;4.10;1.42;;;21.20;45.20;;;;;;4951581;28;20242;-51
2022/04/11 09:39:44;;;;;;;2.78;1.10;;;21.20;45.10;;;;;;4952199;28;20303;-51
2022/04/11 09:42:14;;;;;;;3.30;1.45;;;21.20;45.10;;;;;;4952248;28;20203;-51
2022/04/11 09:44:45;;;;;;;7.32;1.75;;;21.20;45.30;;;;;;4951718;28;20285;-49
2022/04/11 09:47:15;;;;;;;4.47;1.70;;;21.20;46.10;;;;;;4951738;29;20282;-52
2022/04/11 09:49:48;;;;;;;5.93;1.55;;;21.20;46.40;;;;;;4951324;28;20222;-48
2022/04/11 09:52:19;;;;;;;4.68;1.45;;;21.20;46.30;;;;;;4950464;28;20226;-47
2022/04/11 09:54:52;;;;;;;3.60;1.30;;;21.20;46.00;;;;;;4951374;28;20227;-46
2022/04/11 09:57:23;;;;;;;4.82;1.20;;;21.20;46.00;;;;;;4951921;28;20360;-47
2022/04/11 09:59:54;;;;;;;4.25;1.40;;;21.20;46.20;;;;;;4951153;28;20293;-50
2022/04/11 10:02:25;;;;;;;1.95;1.17;;;21.20;46.20;;;;;;4951502;28;20290;-52
2022/04/11 10:04:59;;;;;;;3.05;1.13;;;21.20;46.30;;;;;;4951826;28;20244;-48
2022/04/11 10:07:30;;;;;;;3.97;1.08;;;21.20;46.20;;;;;;4951230;28;20289;-50
2022/04/11 10:10:02;;;;;;;3.42;1.20;;;21.10;46.20;;;;;;4949717;28;20302;-48
2022/04/11 10:12:34;;;;;;;2.72;1.27;;;21.10;46.20;;;;;;4951428;28;20290;-50
2022/04/11 10:15:05;;;;;;;2.25;0.98;;;21.10;46.30;;;;;;4950219;28;20306;-47
2022/04/11 10:17:35;;;;;;;1.95;1.15;;;21.10;46.20;;;;;;4950985;28;20285;-50
2022/04/11 10:20:09;;;;;;;2.90;1.30;;;21.10;46.30;;;;;;4951484;29;20298;-47
2022/04/11 10:22:48;;;;;;;2.88;1.08;;;21.10;46.40;;;;;;4951532;28;20666;-48
2022/04/11 10:25:20;;;;;;;2.35;0.82;;;21.10;46.40;;;;;;4967137;23;20999;-56
2022/04/11 10:28:11;;;;;;;2.33;1.25;;;21.10;46.40;;;;;;4965751;28;20742;-59
2022/04/11 10:30:42;;;;;;;3.83;1.27;;;21.00;46.40;;;;;;4969360;28;20218;-58
2022/04/11 10:33:13;;;;;;;1.98;1.00;;;21.00;46.40;;;;;;4969850;28;20281;-61
2022/04/11 10:35:48;;;;;;;2.78;1.10;;;21.00;46.50;;;;;;4969555;28;20225;-58
2022/04/11 10:38:20;;;;;;;1.73;0.77;;;21.00;46.50;;;;;;4970451;28;20208;-61
2022/04/11 10:40:51;;;;;;;2.40;0.88;;;21.00;46.50;;;;;;4969458;28;20245;-59
2022/04/11 10:43:22;;;;;;;1.55;0.80;;;21.00;46.50;;;;;;4968011;28;20273;-58
2022/04/11 10:46:03;;;;;;;1.55;0.90;;;21.00;46.60;;;;;;4969177;28;20293;-62
2022/04/11 10:49:05;;;;;;;1.65;1.00;;;20.90;46.60;;;;;;4969869;28;20202;-62
2022/04/11 10:51:38;;;;;;;2.08;1.00;;;20.90;46.70;;;;;;4969946;28;20697;-62
2022/04/11 10:54:22;;;;;;;1.70;1.02;;;20.90;46.70;;;;;;4969885;28;20222;-62
2022/04/11 10:56:56;;;;;;;1.77;1.00;;;20.90;46.70;;;;;;4970060;28;20318;-59
2022/04/11 10:59:31;;;;;;;1.40;0.80;;;20.90;46.80;;;;;;4969700;28;20213;-60
2022/04/11 11:02:02;;;;;;;2.05;0.90;;;20.90;46.90;;;;;;4969184;28;20285;-60
2022/04/11 11:04:33;;;;;;;1.70;0.82;;;20.90;46.90;;;;;;4969412;28;20294;-59
2022/04/11 11:07:27;;;;;;;1.40;0.90;;;20.90;46.90;;;;;;4969694;28;20208;-61
2022/04/11 11:09:59;;;;;;;1.52;0.80;;;20.80;46.80;;;;;;4969717;28;20293;-62
2022/04/11 11:12:30;;;;;;;1.45;0.75;;;20.80;46.90;;;;;;4967667;28;20193;-61
2022/04/11 11:15:20;;;;;;;2.33;0.75;;;20.80;46.90;;;;;;4969911;28;20229;-59
2022/04/11 11:18:03;;;;;;;2.17;0.80;;;20.80;46.90;;;;;;4969042;28;20892;-62
2022/04/11 11:20:54;;;;;;;1.67;0.82;;;20.80;47.00;;;;;;4969977;28;20214;-59
2022/04/11 11:23:31;;;;;;;1.75;0.55;;;20.80;47.00;;;;;;4969426;28;20277;-59
2022/04/11 11:26:12;;;;;;;0.93;0.60;;;20.80;47.10;;;;;;4970258;28;20214;-60
2022/04/11 11:28:44;;;;;;;1.30;0.80;;;20.70;47.00;;;;;;4969666;28;20204;-61
2022/04/11 11:31:15;;;;;;;1.83;0.63;;;20.70;47.10;;;;;;4969611;28;20277;-60
2022/04/11 11:33:54;;;;;;;1.17;0.80;;;20.70;47.10;;;;;;4969460;28;20325;-61
2022/04/11 11:36:32;;;;;;;0.98;0.40;;;20.70;47.10;;;;;;4969629;28;20285;-60
2022/04/11 11:39:12;;;;;;;1.98;0.75;;;20.70;47.20;;;;;;4969548;28;20202;-59
2022/04/11 11:41:43;;;;;;;1.05;0.73;;;20.70;47.30;;;;;;4968809;28;20276;-62
2022/04/11 11:44:13;;;;;;;1.92;0.77;;;20.70;47.30;;;;;;4969662;28;20749;-62
2022/04/11 11:46:51;;;;;;;1.13;0.70;;;20.70;47.40;;;;;;4968325;28;20281;-60
2022/04/11 11:49:22;;;;;;;1.88;0.50;;;20.70;47.40;;;;;;4968764;28;20293;-60
2022/04/11 11:51:53;;;;;;;1.35;0.70;;;20.60;47.40;;;;;;4968956;28;20190;-61
2022/04/11 11:54:38;;;;;;;0.88;0.65;;;20.70;47.50;;;;;;4968385;28;20222;-61
2022/04/11 11:57:17;;;;;;;0.98;0.80;;;20.60;47.40;;;;;;4968492;28;20770;-58
2022/04/11 11:59:53;;;;;;;1.52;0.57;;;20.60;47.40;;;;;;4969002;28;20214;-61
2022/04/11 12:05:22;;;;;;;1.90;0.57;;;20.60;47.40;;;;;;4953053;29;20197;-60
2022/04/11 12:07:54;;;;;;;0.52;0.40;;;20.60;47.40;;;;;;4951715;28;20202;-61
2022/04/11 12:10:27;;;;;;;1.58;0.68;;;20.60;47.50;;;;;;4951369;28;20784;-59
2022/04/11 12:12:57;;;;;;;2.13;0.60;;;20.50;47.50;;;;;;4951431;28;20282;-60
2022/04/11 12:15:34;;;;;;;0.85;0.50;;;20.50;47.50;;;;;;4951096;28;20321;-61
2022/04/11 12:18:06;;;;;;;0.75;0.50;;;20.50;48.10;;;;;;4951400;28;20289;-60
2022/04/11 12:20:37;;;;;;;1.50;0.52;;;20.50;47.50;;;;;;4951357;28;20786;-61
2022/04/11 12:23:10;;;;;;;0.50;0.40;;;20.60;47.60;;;;;;4951456;28;20297;-60
2022/04/11 12:25:44;;;;;;;1.48;0.40;;;20.50;47.60;;;;;;4951193;28;20210;-61
2022/04/11 12:28:19;;;;;;;1.55;0.70;;;20.50;47.60;;;;;;4951587;28;20250;-61
2022/04/11 12:30:51;;;;;;;0.90;0.57;;;20.50;47.70;;;;;;4950419;28;20659;-58
2022/04/11 12:33:35;;;;;;;1.13;0.50;;;20.50;47.70;;;;;;4951329;28;20786;-59
2022/04/11 12:36:16;;;;;;;0.68;0.50;;;20.50;47.70;;;;;;4951446;28;20234;-61
2022/04/11 12:38:51;;;;;;;0.93;0.47;;;20.50;47.80;;;;;;4954527;28;20285;-61
2022/04/11 12:41:37;;;;;;;1.20;0.50;;;20.50;47.80;;;;;;4954586;28;20285;-60
2022/04/11 12:44:13;;;;;;;0.85;0.50;;;20.50;47.90;;;;;;4954451;28;20210;-62
2022/04/11 12:46:45;;;;;;;0.70;0.43;;;20.40;47.80;;;;;;4954013;28;20567;-63
2022/04/11 12:49:16;;;;;;;1.15;0.60;;;20.40;47.80;;;;;;4953871;28;20225;-60
2022/04/11 12:51:59;;;;;;;1.05;0.50;;;20.40;47.80;;;;;;4954075;28;20278;-61
2022/04/11 12:54:38;;;;;;;0.82;0.40;;;20.40;47.80;;;;;;4953935;28;20229;-60
2022/04/11 12:57:12;;;;;;;0.80;0.30;;;20.40;47.90;;;;;;4954179;28;20206;-60
2022/04/11 12:59:43;;;;;;;0.60;0.50;;;20.40;47.80;;;;;;4954215;28;20219;-60
2022/04/11 13:02:14;;;;;;;1.02;0.45;;;20.40;47.90;;;;;;4954025;28;20278;-60
2022/04/11 13:04:49;;;;;;;0.77;0.63;;;20.40;47.90;;;;;;4954610;28;20298;-60
2022/04/11 13:07:20;;;;;;;0.85;0.50;;;20.40;47.90;;;;;;4954487;28;20203;-59
2022/04/11 13:09:50;;;;;;;0.35;0.30;;;20.40;48.00;;;;;;4954236;28;20314;-59
2022/04/11 13:12:23;;;;;;;0.85;0.55;;;20.30;47.90;;;;;;4954554;28;20282;-60
2022/04/11 13:14:55;;;;;;;1.40;0.50;;;20.30;48.00;;;;;;4953949;28;20227;-60
2022/04/11 13:20:15;;;;;;;0.35;0.30;;;20.30;48.00;;;;;;4953894;29;20217;-60
2022/04/11 13:22:45;;;;;;;1.23;0.60;;;20.30;48.10;;;;;;4954414;28;20199;-59
2022/04/11 13:25:16;;;;;;;0.50;0.50;;;20.30;48.70;;;;;;4954031;28;20245;-57
2022/04/11 13:27:58;;;;;;;0.80;0.40;;;20.30;48.20;;;;;;4954005;28;20249;-59
2022/04/11 13:38:25;;;;;;;0.65;0.35;;;20.20;48.30;;;;;;5551864;23;20601;-58
2022/04/11 13:40:57;;;;;;;0.70;0.22;;;20.20;48.30;;;;;;4954152;28;20610;-58
2022/04/11 13:43:29;;;;;;;0.60;0.40;;;20.20;48.30;;;;;;4953047;28;20199;-58
2022/04/11 13:46:01;;;;;;;0.40;0.30;;;20.20;48.30;;;;;;4953301;28;20293;-58
2022/04/11 13:48:31;;;;;;;0.93;0.38;;;20.20;48.30;;;;;;4952923;28;20203;-57
2022/04/11 13:51:02;;;;;;;0.85;0.40;;;20.20;48.30;;;;;;4952779;28;20265;-57
2022/04/11 13:53:34;;;;;;;0.73;0.35;;;20.20;48.40;;;;;;4952781;28;20636;-58
2022/04/11 13:56:05;;;;;;;0.68;0.40;;;20.20;48.40;;;;;;4952814;28;20301;-57
2022/04/11 13:58:38;;;;;;;0.35;0.30;;;20.10;48.40;;;;;;4952775;28;20671;-57
2022/04/11 14:01:09;;;;;;;0.40;0.40;;;20.20;48.40;;;;;;4953186;28;20298;-57
2022/04/11 14:03:39;;;;;;;0.40;0.40;;;20.10;48.50;;;;;;4952888;28;20293;-57
2022/04/11 14:06:10;;;;;;;0.60;0.40;;;20.10;48.50;;;;;;4952600;28;20195;-58
2022/04/11 14:08:40;;;;;;;0.68;0.40;;;20.10;48.50;;;;;;4952758;28;20690;-57
2022/04/11 14:11:11;;;;;;;0.50;0.38;;;20.10;48.50;;;;;;4952884;28;21064;-57
2022/04/11 14:13:43;;;;;;;0.30;0.25;;;20.10;48.60;;;;;;4952427;28;20289;-57
2022/04/11 14:16:14;;;;;;;0.25;0.25;;;20.10;48.60;;;;;;4952362;28;20314;-57